aviador You're here:

KNBC Decoded Metar

BEAUFORT in SC, USA
Report Time2017-09-22 23:56:00
UTC Time2017-09-23 00:23:22
Flight Rules vfr VFR
WindCalm
Visibility9999 m
Phenomena:N/A
Clouds:N/A
Expected CloudBase > 1,600 ft AGL from Temp-Dew spread
CeilingNone
Temp26°C (ISA +11)
Dew Point22°C (79% RH)
QNH1015 hPa
Density Alt1,598 ft
Elevation37 ft
Report Wrong Elevation
Raw Report
KNBC 222356Z 00000KT 10SM CLR 26/22 A2998 RMK AO2 TSE12 SLP151
60001 T02560217 10317 20256 58001 $=

Extra information for KNBC:More info

Metar Taf Metar & Taf Last 4 Metars F.Rules Stats Wind Profile Meteogram Temp Stats Airport Information Weather charts Add Link Nearby VenuesMetar ALERT Operation Metar Decoded Social comments

AIRNAV info for KNBC